Time;durP1;ratioP1;P1;durP2;ratioP2;P2;SDS_P1;SDS_P2;PMS_P1;PMS_P2;Temp;Humidity;BMP_temperature;BMP_pressure;BME280_temperature;BME280_humidity;BME280_pressure;Samples;Min_cycle;Max_cycle;Signal;HPM_P1;HPM_P2
2022/04/20 00:01:48;;;;;;;3.40;2.30;;;9.20;76.00;;;;;;5056679;28;20024;-62
2022/04/20 00:04:13;;;;;;;6.05;2.03;;;9.20;76.20;;;;;;5074489;28;20024;-60
2022/04/20 00:06:39;;;;;;;6.07;2.35;;;9.20;76.30;;;;;;5074425;28;20032;-61
2022/04/20 00:09:05;;;;;;;3.20;1.67;;;9.20;76.30;;;;;;5056879;28;20024;-60
2022/04/20 00:11:30;;;;;;;3.55;1.95;;;9.10;76.50;;;;;;5074336;28;20054;-62
2022/04/20 00:13:56;;;;;;;4.97;2.17;;;9.10;76.60;;;;;;5074347;28;20050;-60
2022/04/20 00:16:22;;;;;;;2.75;1.90;;;9.10;76.60;;;;;;5056670;28;20474;-62
2022/04/20 00:18:48;;;;;;;3.70;2.28;;;9.10;76.70;;;;;;5057285;28;20183;-62
2022/04/20 00:21:13;;;;;;;4.53;1.90;;;9.00;76.90;;;;;;5056224;28;20111;-62
2022/04/20 00:23:39;;;;;;;6.75;1.75;;;9.00;76.90;;;;;;5056264;28;20121;-62
2022/04/20 00:26:04;;;;;;;2.13;1.80;;;9.10;76.90;;;;;;5056051;28;20024;-62
2022/04/20 00:28:30;;;;;;;5.05;2.15;;;9.00;77.00;;;;;;5056194;28;20024;-62
2022/04/20 00:30:56;;;;;;;3.65;1.77;;;9.00;77.10;;;;;;5073888;28;20031;-61
2022/04/20 00:33:21;;;;;;;4.05;1.83;;;9.00;77.20;;;;;;5055820;28;20090;-60
2022/04/20 00:35:48;;;;;;;3.42;1.98;;;9.00;77.40;;;;;;5074206;28;20024;-62
2022/04/20 00:38:16;;;;;;;5.53;1.80;;;8.90;77.60;;;;;;5056182;28;20020;-62
2022/04/20 00:40:42;;;;;;;3.90;1.80;;;8.90;77.90;;;;;;5056466;28;20028;-62
2022/04/20 00:43:08;;;;;;;7.70;1.52;;;8.90;78.10;;;;;;5056437;28;20111;-61
2022/04/20 00:45:35;;;;;;;3.10;2.17;;;8.80;78.30;;;;;;5073778;28;20110;-62
2022/04/20 00:48:03;;;;;;;2.72;1.85;;;8.80;78.50;;;;;;5073935;28;20031;-59
2022/04/20 00:50:29;;;;;;;4.72;1.50;;;8.80;78.70;;;;;;5055210;28;20047;-62
2022/04/20 00:52:55;;;;;;;3.67;1.58;;;8.80;78.90;;;;;;5055688;28;20470;-60
2022/04/20 00:55:20;;;;;;;2.72;1.38;;;8.70;78.90;;;;;;5056496;28;20374;-62
2022/04/20 00:57:46;;;;;;;5.80;1.75;;;8.70;79.20;;;;;;5055581;28;20074;-59
2022/04/20 01:00:12;;;;;;;2.50;1.63;;;8.70;79.50;;;;;;5056245;28;20029;-62
2022/04/20 01:02:37;;;;;;;4.25;1.80;;;8.60;79.60;;;;;;5055469;28;20097;-62
2022/04/20 01:05:03;;;;;;;3.92;1.92;;;8.50;81.00;;;;;;5055457;28;20102;-62
2022/04/20 01:07:36;;;;;;;3.63;2.80;;;8.50;82.30;;;;;;5055412;28;20016;-62
2022/04/20 01:10:02;;;;;;;3.92;2.10;;;8.40;82.80;;;;;;5073595;28;20020;-62
2022/04/20 01:12:28;;;;;;;8.68;2.35;;;8.20;83.40;;;;;;5055417;28;20021;-62
2022/04/20 01:14:54;;;;;;;3.05;2.03;;;8.10;84.00;;;;;;5055329;28;20024;-60
2022/04/20 01:17:20;;;;;;;4.63;2.20;;;8.00;84.90;;;;;;5055293;28;20024;-62
2022/04/20 01:19:46;;;;;;;3.20;2.30;;;7.90;86.10;;;;;;5073165;28;20021;-61
2022/04/20 01:22:12;;;;;;;5.68;2.50;;;7.80;87.50;;;;;;5055946;28;20021;-61
2022/04/20 01:24:39;;;;;;;3.50;2.10;;;7.60;88.80;;;;;;5055974;28;20048;-60
2022/04/20 01:27:07;;;;;;;3.00;1.95;;;7.60;89.70;;;;;;5073209;28;20422;-61
2022/04/20 01:29:33;;;;;;;3.85;2.05;;;7.40;90.30;;;;;;5055435;28;20020;-61
2022/04/20 01:31:59;;;;;;;3.35;2.03;;;7.40;90.90;;;;;;5072964;28;20024;-62
2022/04/20 01:34:24;;;;;;;2.83;1.83;;;7.30;91.60;;;;;;5054946;28;20047;-63
2022/04/20 01:36:50;;;;;;;4.22;2.05;;;7.20;92.40;;;;;;5073152;28;20071;-62
2022/04/20 01:39:16;;;;;;;2.88;1.90;;;7.10;93.50;;;;;;5054822;28;20162;-62
2022/04/20 01:41:43;;;;;;;3.17;1.90;;;7.00;94.50;;;;;;5054806;28;20058;-62
2022/04/20 01:44:08;;;;;;;3.95;1.90;;;7.10;95.50;;;;;;5055035;28;20021;-62
2022/04/20 01:46:34;;;;;;;4.55;2.13;;;7.10;96.40;;;;;;5073091;28;20028;-62
2022/04/20 01:49:01;;;;;;;3.80;1.73;;;7.00;98.20;;;;;;5054895;28;20029;-62
2022/04/20 01:54:12;;;;;;;5.32;2.03;;;6.90;99.90;;;;;;5078496;28;20562;-62
2022/04/20 01:56:38;;;;;;;4.03;2.25;;;6.60;99.90;;;;;;5074729;28;20176;-61
2022/04/20 01:59:04;;;;;;;3.63;2.05;;;6.50;99.90;;;;;;5074733;28;20110;-62
2022/04/20 02:04:13;;;;;;;3.95;2.15;;;6.30;99.90;;;;;;5097637;28;20035;-62
2022/04/20 02:06:39;;;;;;;5.30;2.40;;;6.30;99.90;;;;;;5078923;28;20016;-62
2022/04/20 02:09:05;;;;;;;7.57;2.03;;;6.40;99.90;;;;;;5079003;28;20086;-62
2022/04/20 02:11:31;;;;;;;3.70;1.98;;;6.40;99.90;;;;;;5078800;28;20059;-62
2022/04/20 02:13:58;;;;;;;3.88;1.95;;;6.40;99.90;;;;;;5078856;28;20032;-59
2022/04/20 02:16:23;;;;;;;3.28;2.05;;;6.40;99.90;;;;;;5096805;28;20023;-60
2022/04/20 02:18:49;;;;;;;5.88;1.88;;;6.50;99.90;;;;;;5096761;28;20020;-58
2022/04/20 02:21:15;;;;;;;2.03;1.73;;;6.40;99.90;;;;;;5078485;28;20020;-60
2022/04/20 02:23:47;;;;;;;2.88;1.67;;;6.40;99.90;;;;;;5097038;28;20039;-60
2022/04/20 02:26:12;;;;;;;2.30;1.67;;;6.50;99.90;;;;;;5096752;28;20043;-59
2022/04/20 02:28:38;;;;;;;4.07;2.40;;;6.40;99.90;;;;;;5096669;28;20470;-62
2022/04/20 02:31:03;;;;;;;2.92;1.90;;;6.30;99.90;;;;;;5078994;28;20032;-63
2022/04/20 02:33:29;;;;;;;5.68;1.92;;;6.20;99.90;;;;;;5078395;28;20031;-60
2022/04/20 02:35:56;;;;;;;3.90;1.85;;;6.20;99.90;;;;;;5078353;28;20086;-62
2022/04/20 02:38:22;;;;;;;2.88;1.60;;;6.10;99.90;;;;;;5096486;28;20047;-59
2022/04/20 02:40:50;;;;;;;2.53;1.60;;;6.10;99.90;;;;;;5078163;28;20498;-61
2022/04/20 02:43:16;;;;;;;5.47;1.90;;;6.10;99.90;;;;;;5096368;28;20543;-60
2022/04/20 02:45:42;;;;;;;3.15;1.98;;;6.00;99.90;;;;;;5078363;28;20020;-61
2022/04/20 02:48:09;;;;;;;3.42;2.00;;;6.00;99.90;;;;;;5078019;28;20016;-62
2022/04/20 02:50:35;;;;;;;3.78;2.10;;;6.10;99.90;;;;;;5078269;28;20031;-58
2022/04/20 02:53:00;;;;;;;2.88;1.85;;;6.10;99.90;;;;;;5078059;28;20024;-61
2022/04/20 02:55:26;;;;;;;5.00;2.30;;;6.10;99.90;;;;;;5096303;28;20024;-60
2022/04/20 02:57:52;;;;;;;2.67;1.70;;;6.00;99.90;;;;;;5078005;28;20126;-62
2022/04/20 03:00:17;;;;;;;4.72;1.65;;;6.00;99.90;;;;;;5077557;28;20024;-60
2022/04/20 03:02:43;;;;;;;3.95;1.98;;;6.00;99.90;;;;;;5078118;28;20020;-60
2022/04/20 03:05:09;;;;;;;1.90;1.70;;;6.00;99.90;;;;;;5077689;28;20065;-62
2022/04/20 03:07:35;;;;;;;4.30;1.98;;;5.90;99.90;;;;;;5078156;28;20065;-62
2022/04/20 03:10:01;;;;;;;3.45;1.98;;;5.90;99.90;;;;;;5095825;28;20063;-62
2022/04/20 03:12:27;;;;;;;3.38;2.25;;;5.90;99.90;;;;;;5077360;28;20072;-62
2022/04/20 03:14:54;;;;;;;2.28;1.60;;;5.80;99.90;;;;;;5077583;28;20028;-62
2022/04/20 03:17:24;;;;;;;5.40;2.00;;;5.80;99.90;;;;;;5077992;28;20110;-62
2022/04/20 03:19:51;;;;;;;7.25;2.00;;;5.70;99.90;;;;;;5095598;28;20023;-62
2022/04/20 03:22:17;;;;;;;4.13;2.05;;;5.70;99.90;;;;;;5095613;28;20027;-62
2022/04/20 03:24:43;;;;;;;4.32;2.08;;;5.70;99.90;;;;;;5095473;28;20024;-60
2022/04/20 03:27:08;;;;;;;4.50;2.25;;;5.70;99.90;;;;;;5077360;28;20024;-62
2022/04/20 03:29:34;;;;;;;4.38;2.22;;;5.60;99.90;;;;;;5069303;28;20052;-62
2022/04/20 03:32:05;;;;;;;3.45;2.05;;;5.60;99.90;;;;;;5057680;28;20091;-62
2022/04/20 03:34:30;;;;;;;3.83;1.85;;;5.50;99.90;;;;;;5057155;28;20063;-62
2022/04/20 03:36:56;;;;;;;2.65;1.80;;;5.60;99.90;;;;;;5057050;28;20056;-62
2022/04/20 03:39:22;;;;;;;5.25;2.35;;;5.60;99.90;;;;;;5074979;28;20104;-59
2022/04/20 03:41:47;;;;;;;4.72;1.90;;;5.60;99.90;;;;;;5074941;28;20059;-63
2022/04/20 03:44:13;;;;;;;2.97;1.90;;;5.60;99.90;;;;;;5075274;28;20051;-62
2022/04/20 03:46:38;;;;;;;4.18;2.00;;;5.60;99.90;;;;;;5072544;28;20033;-62
2022/04/20 03:49:04;;;;;;;3.83;2.20;;;5.50;99.90;;;;;;5056983;28;20056;-62
2022/04/20 03:51:30;;;;;;;3.90;2.30;;;5.50;99.90;;;;;;5056777;28;20036;-63
2022/04/20 03:53:55;;;;;;;5.32;2.08;;;5.50;99.90;;;;;;5056895;28;20021;-63
2022/04/20 03:56:21;;;;;;;2.63;1.80;;;5.40;99.90;;;;;;5071023;28;20031;-62
2022/04/20 03:58:46;;;;;;;4.20;1.90;;;5.40;99.90;;;;;;5073694;28;20070;-62
2022/04/20 04:01:12;;;;;;;5.22;2.70;;;5.30;99.90;;;;;;5056723;28;20044;-61
2022/04/20 04:03:38;;;;;;;3.50;2.00;;;5.30;99.90;;;;;;5073402;28;20032;-61
2022/04/20 04:06:04;;;;;;;6.05;2.40;;;5.30;99.90;;;;;;5074542;28;20488;-61
2022/04/20 04:08:29;;;;;;;4.00;2.20;;;5.20;99.90;;;;;;5057144;28;20053;-62
2022/04/20 04:10:56;;;;;;;3.45;2.10;;;5.20;99.90;;;;;;5057426;28;20036;-61
2022/04/20 04:13:22;;;;;;;7.20;2.28;;;5.20;99.90;;;;;;5056548;28;20048;-61
2022/04/20 04:15:49;;;;;;;5.55;2.75;;;5.10;99.90;;;;;;5056262;28;20060;-61
2022/04/20 04:18:14;;;;;;;5.25;2.20;;;5.10;99.90;;;;;;5056270;28;20433;-62
2022/04/20 04:20:40;;;;;;;3.30;2.10;;;5.10;99.90;;;;;;5074076;28;20090;-62
2022/04/20 04:23:06;;;;;;;4.22;2.85;;;5.10;99.90;;;;;;5073268;28;20059;-62
2022/04/20 04:25:32;;;;;;;7.68;2.30;;;5.00;99.90;;;;;;5072845;28;20025;-60
2022/04/20 04:27:57;;;;;;;6.22;2.15;;;5.00;99.90;;;;;;5074550;28;20017;-63
2022/04/20 04:30:23;;;;;;;2.85;2.00;;;5.00;99.90;;;;;;5073938;28;20104;-62
2022/04/20 04:32:49;;;;;;;3.72;2.80;;;5.00;99.90;;;;;;5073576;28;20131;-62
2022/04/20 04:35:14;;;;;;;5.25;2.08;;;4.90;99.90;;;;;;5056536;28;20078;-62
2022/04/20 04:37:40;;;;;;;3.15;2.05;;;4.90;99.90;;;;;;5057573;28;20031;-61
2022/04/20 04:40:06;;;;;;;7.05;2.22;;;4.90;99.90;;;;;;5056453;28;20020;-62
2022/04/20 04:42:32;;;;;;;6.93;3.13;;;5.10;99.90;;;;;;5074274;28;20024;-63
2022/04/20 04:48:36;;;;;;;3.80;2.45;;;5.10;99.90;;;;;;5073031;28;20023;-61
2022/04/20 04:50:27;;;;;;;5.43;3.22;;;5.40;99.90;;;;;;5074426;28;20058;-62
2022/04/20 04:52:53;;;;;;;5.57;2.67;;;5.70;99.90;;;;;;5074166;28;20031;-62
2022/04/20 04:55:19;;;;;;;5.70;2.22;;;6.20;99.90;;;;;;5056060;28;20025;-62
2022/04/20 04:57:45;;;;;;;7.45;2.40;;;6.60;99.90;;;;;;5056650;28;20024;-60
2022/04/20 05:00:11;;;;;;;4.25;1.90;;;6.90;99.90;;;;;;5074020;28;20033;-61
2022/04/20 05:02:37;;;;;;;7.70;2.95;;;7.20;99.90;;;;;;5072648;28;20478;-62
2022/04/20 05:05:04;;;;;;;6.50;2.45;;;7.50;99.90;;;;;;5056317;28;20074;-62
2022/04/20 05:07:29;;;;;;;5.18;2.10;;;7.80;99.90;;;;;;5072856;28;20025;-62
2022/04/20 05:09:55;;;;;;;16.10;2.78;;;8.10;99.90;;;;;;5055983;28;20027;-62
2022/04/20 05:12:20;;;;;;;22.40;3.30;;;8.60;99.90;;;;;;5072827;28;20032;-63
2022/04/20 05:14:46;;;;;;;6.18;2.22;;;9.00;99.90;;;;;;5055801;28;20025;-63
2022/04/20 05:17:12;;;;;;;4.15;2.42;;;9.60;99.90;;;;;;5055853;28;20050;-61
2022/04/20 05:19:38;;;;;;;4.03;2.28;;;10.00;99.90;;;;;;5056428;28;20036;-61
2022/04/20 05:22:04;;;;;;;7.32;2.67;;;10.40;99.90;;;;;;5055937;28;20021;-61
2022/04/20 05:24:30;;;;;;;3.80;1.80;;;10.70;99.90;;;;;;5072583;28;20089;-60
2022/04/20 05:26:56;;;;;;;5.03;2.10;;;11.10;99.90;;;;;;5073612;28;20103;-61
2022/04/20 05:29:21;;;;;;;2.78;1.83;;;11.50;99.90;;;;;;5073524;28;20032;-61
2022/04/20 05:31:51;;;;;;;3.83;2.40;;;11.80;99.90;;;;;;5055891;28;20029;-61
2022/04/20 05:34:17;;;;;;;4.30;2.15;;;12.10;99.90;;;;;;5055563;28;20025;-60
2022/04/20 05:42:11;;;;;;;5.13;2.30;;;13.60;99.10;;;;;;5073695;28;20031;-62
2022/04/20 05:44:37;;;;;;;3.95;2.78;;;14.00;97.00;;;;;;5073374;28;20021;-61
2022/04/20 05:47:03;;;;;;;10.18;2.97;;;14.40;96.20;;;;;;5073650;28;20503;-59
2022/04/20 05:49:29;;;;;;;5.32;2.60;;;14.60;95.00;;;;;;5055302;28;20074;-61
2022/04/20 05:51:54;;;;;;;8.25;3.97;;;15.10;93.90;;;;;;5073193;28;20113;-62
2022/04/20 05:54:20;;;;;;;3.95;2.78;;;15.60;93.60;;;;;;5073293;28;20031;-62
2022/04/20 05:56:45;;;;;;;3.72;2.20;;;16.00;92.60;;;;;;5073183;28;20082;-61
2022/04/20 05:59:11;;;;;;;4.95;3.17;;;16.40;91.60;;;;;;5073576;28;20060;-63
2022/04/20 06:01:37;;;;;;;3.33;2.50;;;16.90;88.30;;;;;;5072472;28;20052;-64
2022/04/20 06:04:03;;;;;;;4.55;2.40;;;17.30;90.00;;;;;;5055294;28;20016;-64
2022/04/20 06:06:28;;;;;;;5.80;2.60;;;17.90;83.30;;;;;;5073311;28;20100;-63
2022/04/20 06:08:54;;;;;;;3.25;2.08;;;17.90;80.90;;;;;;5055444;28;20082;-63
2022/04/20 06:11:19;;;;;;;3.60;2.50;;;17.70;82.60;;;;;;5055232;28;20111;-63
2022/04/20 06:13:45;;;;;;;5.75;3.05;;;17.80;80.60;;;;;;5055136;28;20024;-63
2022/04/20 06:16:11;;;;;;;8.75;3.38;;;18.10;79.20;;;;;;5071897;28;20028;-63
2022/04/20 06:18:37;;;;;;;4.78;2.70;;;18.00;77.50;;;;;;5072647;28;20078;-63
2022/04/20 06:21:03;;;;;;;3.65;2.53;;;17.80;76.10;;;;;;5071970;28;20033;-63
2022/04/20 06:23:29;;;;;;;5.50;4.32;;;18.40;79.60;;;;;;5071896;28;20069;-64
2022/04/20 06:25:55;;;;;;;4.00;2.70;;;19.40;75.50;;;;;;5055891;28;20115;-64
2022/04/20 06:28:24;;;;;;;6.70;2.95;;;19.60;72.90;;;;;;5055231;28;20021;-64
2022/04/20 06:30:50;;;;;;;5.70;2.67;;;19.90;73.50;;;;;;5071678;28;20025;-63
2022/04/20 06:33:16;;;;;;;8.57;2.53;;;19.90;70.80;;;;;;5072006;28;20020;-63
2022/04/20 06:35:41;;;;;;;8.73;2.45;;;19.70;70.20;;;;;;5075004;28;20047;-63
2022/04/20 06:38:07;;;;;;;5.30;2.35;;;19.60;70.60;;;;;;5075008;28;20107;-64
2022/04/20 06:40:33;;;;;;;5.07;3.08;;;20.20;70.00;;;;;;5074812;28;20028;-61
2022/04/20 06:42:58;;;;;;;10.38;2.40;;;20.30;66.60;;;;;;5084363;28;20463;-63
2022/04/20 06:45:24;;;;;;;4.68;2.53;;;20.20;66.90;;;;;;5054850;28;20036;-64
2022/04/20 06:47:50;;;;;;;5.60;2.40;;;20.40;68.90;;;;;;5057169;28;20027;-64
2022/04/20 06:50:16;;;;;;;8.40;2.50;;;21.00;66.20;;;;;;5076473;28;20028;-64
2022/04/20 07:00:54;;;;;;;6.35;2.58;;;21.80;61.80;;;;;;5078012;28;20036;-64
2022/04/20 07:03:20;;;;;;;5.85;2.38;;;22.70;60.80;;;;;;5078802;28;20394;-64
2022/04/20 07:05:46;;;;;;;3.22;1.83;;;22.70;60.20;;;;;;5096493;28;20381;-64
2022/04/20 07:08:11;;;;;;;9.05;3.30;;;23.50;61.60;;;;;;5079015;28;20020;-64
2022/04/20 07:10:37;;;;;;;5.63;2.72;;;23.80;59.60;;;;;;5077619;28;20020;-64
2022/04/20 07:13:02;;;;;;;3.28;2.45;;;23.90;58.20;;;;;;5076181;28;20028;-64
2022/04/20 07:15:28;;;;;;;6.30;2.33;;;24.50;57.10;;;;;;5080618;28;20028;-63
2022/04/20 07:17:54;;;;;;;8.18;2.25;;;24.00;54.60;;;;;;5079103;28;20096;-65
2022/04/20 07:20:19;;;;;;;8.00;2.42;;;23.90;55.60;;;;;;5075493;28;20563;-64
2022/04/20 07:22:49;;;;;;;2.40;1.98;;;24.30;55.40;;;;;;5076546;28;20017;-64
2022/04/20 07:25:16;;;;;;;7.35;1.92;;;23.60;50.10;;;;;;5074628;28;20036;-64
2022/04/20 07:27:42;;;;;;;4.80;2.17;;;23.20;51.40;;;;;;5075030;28;20060;-64
2022/04/20 07:30:08;;;;;;;4.72;2.05;;;22.50;50.50;;;;;;5074656;28;20060;-64
2022/04/20 07:32:34;;;;;;;4.38;2.10;;;22.20;52.50;;;;;;5075699;28;20157;-64
2022/04/20 07:34:59;;;;;;;5.05;1.83;;;23.00;51.80;;;;;;5078443;28;20040;-63
2022/04/20 07:37:25;;;;;;;4.90;1.75;;;23.60;50.90;;;;;;5072574;28;20051;-64
2022/04/20 07:39:51;;;;;;;3.15;2.05;;;23.70;50.50;;;;;;5077538;28;20028;-63
2022/04/20 07:42:16;;;;;;;2.60;2.00;;;23.70;49.10;;;;;;5094020;28;20020;-64
2022/04/20 07:44:42;;;;;;;2.13;1.77;;;23.60;48.50;;;;;;5075675;28;20081;-64
2022/04/20 07:47:07;;;;;;;5.28;1.92;;;23.40;48.20;;;;;;5094091;28;20016;-63
2022/04/20 07:52:19;;;;;;;4.07;1.65;;;23.20;48.40;;;;;;5094013;28;20473;-62
2022/04/20 07:54:45;;;;;;;2.40;2.17;;;23.70;47.00;;;;;;5092752;28;20027;-61
2022/04/20 07:57:14;;;;;;;4.03;2.25;;;23.50;47.20;;;;;;5077828;28;20025;-63
2022/04/20 07:59:40;;;;;;;5.20;1.95;;;23.60;47.40;;;;;;5062011;28;20024;-63
2022/04/20 08:02:06;;;;;;;3.72;1.80;;;23.70;47.10;;;;;;5076595;28;20515;-64
2022/04/20 08:04:32;;;;;;;3.97;2.42;;;24.20;46.00;;;;;;5076355;28;20024;-63
2022/04/20 08:06:58;;;;;;;3.30;2.38;;;23.40;46.70;;;;;;5069479;28;20016;-63
2022/04/20 08:09:24;;;;;;;7.47;2.30;;;23.60;47.40;;;;;;5076556;28;20462;-63
2022/04/20 08:11:50;;;;;;;4.38;1.98;;;24.00;46.50;;;;;;5058437;28;20089;-63
2022/04/20 08:14:16;;;;;;;8.30;2.03;;;24.20;46.80;;;;;;5075024;28;20104;-64
2022/04/20 08:16:44;;;;;;;7.20;2.55;;;24.20;46.30;;;;;;5082016;28;20024;-64
2022/04/20 08:19:10;;;;;;;3.65;2.40;;;24.40;45.80;;;;;;5073378;28;20095;-64
2022/04/20 08:21:36;;;;;;;5.25;1.90;;;24.10;45.70;;;;;;5077380;28;20016;-63
2022/04/20 08:24:03;;;;;;;2.53;1.80;;;23.90;46.30;;;;;;5095342;28;20150;-63
2022/04/20 08:26:28;;;;;;;2.88;1.58;;;23.50;46.20;;;;;;5060674;28;20478;-63
2022/04/20 08:28:54;;;;;;;2.78;2.00;;;23.30;46.80;;;;;;5094715;28;20016;-65
2022/04/20 08:31:20;;;;;;;2.88;2.35;;;23.30;47.20;;;;;;5075912;28;20026;-64
2022/04/20 08:33:46;;;;;;;8.80;2.08;;;23.40;48.00;;;;;;5066260;28;20531;-68
2022/04/20 08:36:12;;;;;;;2.22;1.75;;;22.60;47.60;;;;;;5073135;28;20108;-68
2022/04/20 08:38:40;;;;;;;2.10;1.85;;;23.00;47.30;;;;;;5074556;28;20017;-67
2022/04/20 08:41:10;;;;;;;2.13;1.75;;;23.80;48.00;;;;;;5074037;28;20104;-67
2022/04/20 08:43:40;;;;;;;5.63;2.08;;;24.10;47.90;;;;;;5087484;28;20455;-66
2022/04/20 08:46:09;;;;;;;4.38;2.10;;;23.70;46.80;;;;;;5093612;28;20020;-67
2022/04/20 08:48:35;;;;;;;3.97;1.95;;;23.70;48.20;;;;;;5094417;28;20469;-68
2022/04/20 08:51:04;;;;;;;5.57;2.10;;;24.10;48.40;;;;;;5094404;28;20054;-67
2022/04/20 08:53:30;;;;;;;10.98;2.58;;;24.20;47.60;;;;;;5092722;28;20024;-67
2022/04/20 08:58:48;;;;;;;6.47;3.17;;;23.50;47.60;;;;;;5074745;28;20058;-69
2022/04/20 09:01:15;;;;;;;4.70;2.00;;;23.80;47.10;;;;;;5056166;28;20037;-69
2022/04/20 09:03:43;;;;;;;5.05;2.15;;;23.90;47.20;;;;;;5068969;28;20063;-69
2022/04/20 09:06:09;;;;;;;2.97;2.13;;;24.20;47.40;;;;;;5075585;28;20051;-68
2022/04/20 09:08:36;;;;;;;2.65;2.30;;;24.70;46.30;;;;;;5094089;28;20027;-67
2022/04/20 09:11:01;;;;;;;5.45;2.40;;;24.90;46.40;;;;;;5075699;28;20077;-67
2022/04/20 09:13:36;;;;;;;3.55;2.00;;;24.30;46.60;;;;;;5094257;28;20020;-68
2022/04/20 09:16:13;;;;;;;2.58;2.10;;;24.50;45.20;;;;;;5075684;28;20080;-68
2022/04/20 09:18:40;;;;;;;2.75;1.90;;;23.50;44.90;;;;;;5075727;28;20028;-68
2022/04/20 09:21:11;;;;;;;6.38;2.10;;;22.70;45.00;;;;;;5093585;28;20027;-68
2022/04/20 09:23:37;;;;;;;2.70;1.85;;;23.00;45.90;;;;;;5075538;28;20024;-69
2022/04/20 09:26:16;;;;;;;4.78;1.95;;;22.60;45.90;;;;;;5076059;28;20020;-68
2022/04/20 09:29:08;;;;;;;2.70;1.98;;;22.50;45.70;;;;;;5075618;28;20046;-68
2022/04/20 09:31:45;;;;;;;4.78;2.03;;;22.60;45.20;;;;;;5075365;28;20031;-67
2022/04/20 09:34:53;;;;;;;4.78;1.70;;;22.30;46.80;;;;;;5075403;28;20072;-68
2022/04/20 09:37:21;;;;;;;4.05;2.20;;;22.50;46.50;;;;;;5075587;28;20382;-68
2022/04/20 09:39:49;;;;;;;4.32;2.30;;;22.70;46.00;;;;;;5093402;28;20035;-67
2022/04/20 09:42:15;;;;;;;3.70;2.00;;;22.60;46.50;;;;;;5075571;28;20020;-67
2022/04/20 09:44:53;;;;;;;5.97;1.85;;;22.40;46.00;;;;;;5075636;28;20020;-69
2022/04/20 09:50:11;;;;;;;4.07;2.10;;;22.50;46.10;;;;;;5093686;28;20039;-66
2022/04/20 09:52:39;;;;;;;2.95;1.73;;;22.80;47.20;;;;;;5079871;28;20028;-65
2022/04/20 09:55:06;;;;;;;3.92;2.20;;;22.80;46.60;;;;;;5062172;28;20024;-66
2022/04/20 09:57:34;;;;;;;3.47;2.05;;;22.20;46.80;;;;;;5075659;28;20028;-65
2022/04/20 10:00:03;;;;;;;4.10;1.70;;;23.10;47.00;;;;;;5075346;28;20035;-66
2022/04/20 10:02:30;;;;;;;2.05;1.52;;;23.50;46.70;;;;;;5075267;28;20031;-65
2022/04/20 10:05:13;;;;;;;2.53;1.80;;;23.40;46.40;;;;;;5074947;28;20024;-66
2022/04/20 10:07:39;;;;;;;3.78;1.98;;;22.60;46.30;;;;;;5093345;28;20028;-63
2022/04/20 10:10:05;;;;;;;4.40;2.05;;;22.50;47.00;;;;;;5075126;28;20031;-65
2022/04/20 10:12:32;;;;;;;3.78;1.95;;;21.70;48.20;;;;;;5093129;28;20031;-62
2022/04/20 10:17:47;;;;;;;3.33;1.73;;;21.30;48.80;;;;;;5093450;28;20055;-61
2022/04/20 10:20:14;;;;;;;2.00;1.80;;;20.80;49.00;;;;;;5092879;28;20449;-63
2022/04/20 10:22:40;;;;;;;3.08;2.03;;;20.20;50.10;;;;;;5077045;28;20017;-63
2022/04/20 10:25:17;;;;;;;3.47;1.33;;;20.20;50.00;;;;;;5084098;28;20025;-62
2022/04/20 10:27:58;;;;;;;3.30;1.98;;;20.00;51.90;;;;;;5058919;28;20028;-62
2022/04/20 10:31:03;;;;;;;2.75;1.90;;;19.80;51.00;;;;;;5059105;28;20125;-63
2022/04/20 10:33:31;;;;;;;2.97;1.88;;;19.70;50.90;;;;;;4959607;28;20173;-63
2022/04/20 10:36:03;;;;;;;2.45;2.03;;;19.30;51.70;;;;;;5043139;28;20123;-65
2022/04/20 10:38:31;;;;;;;2.53;1.90;;;18.60;53.20;;;;;;5076676;28;20102;-65
2022/04/20 10:41:19;;;;;;;4.82;2.30;;;18.30;54.20;;;;;;5058389;28;20021;-66
2022/04/20 10:43:46;;;;;;;6.22;2.25;;;18.20;54.60;;;;;;5058623;28;20027;-65
2022/04/20 10:46:20;;;;;;;2.75;1.77;;;18.00;55.50;;;;;;5058578;28;20032;-66
2022/04/20 10:49:00;;;;;;;4.55;1.90;;;17.90;55.00;;;;;;5058888;28;20032;-67
2022/04/20 10:51:42;;;;;;;2.80;1.73;;;17.50;56.30;;;;;;5058908;28;20024;-64
2022/04/20 10:54:28;;;;;;;2.88;1.90;;;17.30;56.20;;;;;;5082092;28;20020;-63
2022/04/20 10:57:05;;;;;;;3.08;2.00;;;17.20;55.80;;;;;;5058153;28;20560;-62
2022/04/20 10:59:32;;;;;;;4.57;2.25;;;16.50;56.20;;;;;;5079692;28;20032;-64
2022/04/20 11:02:04;;;;;;;2.03;1.83;;;16.50;57.00;;;;;;5058081;28;20039;-63
2022/04/20 11:04:50;;;;;;;3.15;2.08;;;16.60;57.60;;;;;;5058105;28;20021;-64
2022/04/20 11:07:26;;;;;;;3.78;1.95;;;16.60;56.70;;;;;;5076292;28;20103;-64
2022/04/20 11:10:05;;;;;;;3.80;1.85;;;16.50;57.30;;;;;;5058405;28;20059;-63
2022/04/20 11:21:03;;;;;;;2.50;2.00;;;15.90;57.80;;;;;;5075721;28;20077;-66
2022/04/20 11:23:53;;;;;;;5.07;2.08;;;15.90;58.50;;;;;;5075849;28;20021;-65
2022/04/20 11:26:35;;;;;;;4.35;2.08;;;15.90;58.40;;;;;;5058093;28;20543;-65
2022/04/20 11:29:08;;;;;;;6.30;2.08;;;16.30;58.00;;;;;;5075752;28;20479;-65
2022/04/20 11:31:38;;;;;;;3.35;1.95;;;16.20;57.70;;;;;;5075510;28;20051;-66
2022/04/20 11:34:05;;;;;;;4.13;1.63;;;16.10;58.10;;;;;;5057771;28;20021;-65
2022/04/20 11:36:31;;;;;;;2.58;1.48;;;16.10;58.40;;;;;;5060809;28;20100;-67
2022/04/20 11:38:57;;;;;;;3.67;1.50;;;16.10;58.40;;;;;;5089081;28;20099;-65
2022/04/20 11:41:23;;;;;;;3.20;1.67;;;16.10;58.80;;;;;;5057400;28;20039;-66
2022/04/20 11:43:51;;;;;;;1.95;1.63;;;16.00;57.20;;;;;;5057499;28;20021;-68
2022/04/20 11:46:17;;;;;;;2.08;1.52;;;15.90;56.60;;;;;;5057188;28;20089;-68
2022/04/20 11:48:54;;;;;;;3.05;1.70;;;15.80;58.40;;;;;;5075026;28;20021;-67
2022/04/20 11:51:23;;;;;;;3.70;1.80;;;15.70;58.80;;;;;;5057081;28;20020;-69
2022/04/20 11:53:49;;;;;;;3.35;1.50;;;15.60;59.10;;;;;;5075029;28;20033;-68
2022/04/20 11:56:15;;;;;;;2.22;1.73;;;15.50;60.00;;;;;;5060699;28;20021;-68
2022/04/20 11:58:46;;;;;;;2.47;1.67;;;15.60;60.20;;;;;;5074109;28;20027;-67
2022/04/20 12:01:12;;;;;;;1.92;1.52;;;15.70;60.00;;;;;;5074791;28;20169;-66
2022/04/20 12:03:41;;;;;;;6.22;1.63;;;15.80;58.30;;;;;;5079355;28;20103;-66
2022/04/20 12:06:09;;;;;;;5.22;1.73;;;15.80;58.40;;;;;;5073918;28;20036;-68
2022/04/20 12:08:40;;;;;;;3.03;1.80;;;15.90;58.40;;;;;;5093071;28;20024;-66
2022/04/20 12:11:10;;;;;;;4.13;1.70;;;15.90;59.20;;;;;;5077051;28;20143;-66
2022/04/20 12:13:39;;;;;;;15.23;1.60;;;15.90;59.80;;;;;;5095070;28;20509;-66
2022/04/20 12:16:06;;;;;;;4.07;1.60;;;15.80;58.40;;;;;;5077277;28;20024;-68
2022/04/20 12:18:43;;;;;;;2.70;1.25;;;15.80;57.80;;;;;;5077260;28;20107;-68
2022/04/20 12:21:35;;;;;;;1.80;1.30;;;15.90;58.00;;;;;;5076863;28;20034;-67
2022/04/20 12:24:00;;;;;;;2.88;1.60;;;16.00;58.40;;;;;;5094950;28;20501;-67
2022/04/20 12:26:28;;;;;;;2.28;1.65;;;16.10;59.50;;;;;;5095013;28;20024;-70
2022/04/20 12:29:05;;;;;;;3.30;1.77;;;16.00;59.80;;;;;;5077575;28;20024;-69
2022/04/20 12:31:31;;;;;;;3.67;1.80;;;16.00;59.70;;;;;;5094925;28;20479;-68
2022/04/20 12:34:05;;;;;;;2.90;1.80;;;16.00;60.00;;;;;;5076874;28;20103;-70
2022/04/20 12:36:48;;;;;;;2.40;1.60;;;16.00;60.80;;;;;;5076574;28;20020;-70
2022/04/20 12:39:34;;;;;;;3.65;1.90;;;16.10;61.90;;;;;;5076412;28;20020;-69
2022/04/20 12:42:20;;;;;;;3.58;2.22;;;16.10;61.50;;;;;;5056241;28;20169;-68
2022/04/20 12:44:47;;;;;;;2.85;1.88;;;16.00;60.90;;;;;;5072136;28;20029;-68
2022/04/20 12:47:16;;;;;;;2.63;1.85;;;15.90;61.20;;;;;;5056594;28;20115;-69
2022/04/20 12:49:51;;;;;;;2.50;1.88;;;16.00;61.60;;;;;;5074166;28;20078;-68
2022/04/20 12:52:28;;;;;;;3.63;1.60;;;16.10;60.90;;;;;;5074021;28;20041;-67
2022/04/20 12:54:58;;;;;;;6.40;2.20;;;16.30;61.40;;;;;;5056072;28;20028;-67
2022/04/20 13:03:13;;;;;;;3.88;1.83;;;16.20;62.40;;;;;;5073820;28;20031;-67
2022/04/20 13:05:42;;;;;;;3.05;2.25;;;16.20;61.90;;;;;;5074470;28;20080;-67
2022/04/20 13:08:10;;;;;;;4.47;1.90;;;16.10;62.10;;;;;;5073865;28;20039;-64
2022/04/20 13:10:43;;;;;;;1.85;1.38;;;16.10;62.40;;;;;;5072391;28;20033;-64
2022/04/20 13:13:10;;;;;;;5.50;1.90;;;16.30;62.80;;;;;;5071656;28;20025;-64
2022/04/20 13:15:36;;;;;;;2.05;1.50;;;16.40;61.30;;;;;;5078202;28;20028;-64
2022/04/20 13:18:01;;;;;;;3.67;1.63;;;16.30;61.20;;;;;;5072334;28;20040;-64
2022/04/20 13:20:29;;;;;;;2.75;1.67;;;16.30;63.30;;;;;;5068413;28;20021;-64
2022/04/20 13:22:55;;;;;;;7.30;1.92;;;16.20;62.80;;;;;;5069562;28;20401;-63
2022/04/20 13:28:10;;;;;;;2.42;1.70;;;16.20;62.40;;;;;;5084187;28;20194;-63
2022/04/20 13:30:38;;;;;;;4.72;1.73;;;16.30;63.50;;;;;;5093536;28;20032;-63
2022/04/20 13:33:06;;;;;;;2.53;1.65;;;16.30;61.90;;;;;;5081533;28;20069;-63
2022/04/20 13:35:32;;;;;;;2.70;2.00;;;16.30;62.30;;;;;;5071307;28;20028;-62
2022/04/20 13:37:58;;;;;;;3.33;1.50;;;16.30;61.50;;;;;;5075358;28;20035;-63
2022/04/20 13:40:24;;;;;;;6.05;1.38;;;16.30;62.80;;;;;;5075317;28;20032;-66
2022/04/20 13:42:50;;;;;;;5.75;1.63;;;16.40;63.50;;;;;;5075454;28;20024;-65
2022/04/20 13:45:16;;;;;;;6.63;1.75;;;16.40;62.80;;;;;;5093631;28;20027;-64